Time;durP1;ratioP1;P1;durP2;ratioP2;P2;SDS_P1;SDS_P2;PMS_P1;PMS_P2;Temp;Humidity;BMP_temperature;BMP_pressure;BME280_temperature;BME280_humidity;BME280_pressure;Samples;Min_cycle;Max_cycle;Signal;HPM_P1;HPM_P2
2023/10/16 00:00:56;;;;;;;4.72;1.23;;;4.60;99.90;;;;;;4921236;29;20095;-71
2023/10/16 00:03:22;;;;;;;8.25;1.30;;;4.60;99.90;;;;;;4924813;29;20060;-71
2023/10/16 00:05:51;;;;;;;4.07;1.02;;;4.80;99.90;;;;;;4926137;29;20031;-71
2023/10/16 00:08:18;;;;;;;1.85;0.68;;;4.80;99.90;;;;;;4919272;29;20368;-71
2023/10/16 00:10:59;;;;;;;1.75;0.98;;;4.80;99.90;;;;;;4917318;29;20392;-71
2023/10/16 00:13:28;;;;;;;2.13;0.88;;;4.70;99.90;;;;;;4925376;29;20039;-71
2023/10/16 00:16:03;;;;;;;1.42;0.90;;;4.70;99.90;;;;;;4927889;29;20028;-71
2023/10/16 00:18:35;;;;;;;6.00;1.08;;;4.80;99.90;;;;;;4934334;29;20062;-71
2023/10/16 00:21:06;;;;;;;1.98;1.13;;;4.70;99.90;;;;;;4921479;29;20110;-71
2023/10/16 00:23:38;;;;;;;1.52;1.17;;;4.50;99.90;;;;;;4906259;29;20032;-70
2023/10/16 00:26:21;;;;;;;2.45;1.08;;;4.30;99.90;;;;;;4910572;29;20040;-71
2023/10/16 00:28:52;;;;;;;3.95;1.52;;;4.30;99.90;;;;;;4916188;29;20039;-71
2023/10/16 00:31:20;;;;;;;3.28;1.42;;;4.30;99.90;;;;;;4917518;29;20043;-71
2023/10/16 00:33:51;;;;;;;1.85;1.15;;;4.40;99.90;;;;;;4918835;29;20074;-71
2023/10/16 00:36:17;;;;;;;2.60;0.80;;;4.40;99.90;;;;;;4924014;29;20082;-71
2023/10/16 00:38:48;;;;;;;2.25;1.10;;;4.50;99.90;;;;;;4915227;29;20386;-71
2023/10/16 00:43:40;;;;;;;3.08;1.25;;;4.40;99.90;;;;;;4933569;29;20499;-71
2023/10/16 00:46:09;;;;;;;1.17;1.08;;;4.50;99.90;;;;;;4925038;29;20055;-71
2023/10/16 00:48:37;;;;;;;1.60;0.82;;;4.50;99.90;;;;;;4918674;29;20028;-71
2023/10/16 00:51:13;;;;;;;1.90;1.20;;;4.40;99.90;;;;;;4918671;29;20039;-71
2023/10/16 00:53:44;;;;;;;4.97;1.35;;;4.40;99.90;;;;;;4913380;29;20692;-71
2023/10/16 00:56:13;;;;;;;;;;;4.50;99.90;;;;;;4915595;29;20126;-71
2023/10/16 00:58:45;;;;;;;2.92;1.25;;;4.60;99.90;;;;;;4928228;29;19927;-71
2023/10/16 01:01:13;;;;;;;1.08;0.80;;;4.70;99.90;;;;;;4914728;29;20497;-71
2023/10/16 01:03:42;;;;;;;2.47;1.30;;;4.70;99.90;;;;;;4924316;29;20028;-71
2023/10/16 01:08:56;;;;;;;1.67;1.10;;;4.60;99.90;;;;;;4926047;29;20075;-71
2023/10/16 01:11:22;;;;;;;2.25;1.15;;;4.70;99.90;;;;;;4919512;29;20052;-71
2023/10/16 01:13:50;;;;;;;1.45;1.13;;;4.70;99.90;;;;;;4927510;29;20032;-71
2023/10/16 01:16:19;;;;;;;1.88;1.02;;;4.70;99.90;;;;;;4914217;29;20091;-71
2023/10/16 01:18:46;;;;;;;2.45;1.00;;;4.70;99.90;;;;;;4923119;29;20064;-71
2023/10/16 01:21:17;;;;;;;7.65;1.23;;;4.70;99.90;;;;;;4919235;29;20764;-71
2023/10/16 01:23:45;;;;;;;5.40;1.35;;;4.70;99.90;;;;;;4918107;29;20071;-71
2023/10/16 01:26:15;;;;;;;1.80;1.02;;;4.70;99.90;;;;;;4921176;29;20167;-71
2023/10/16 01:28:41;;;;;;;2.00;1.02;;;4.70;99.90;;;;;;4915952;29;20024;-71
2023/10/16 01:31:07;;;;;;;4.65;1.75;;;4.60;99.90;;;;;;4917458;29;20433;-71
2023/10/16 01:33:33;;;;;;;1.67;1.20;;;4.60;99.90;;;;;;4931788;29;20469;-71
2023/10/16 01:35:59;;;;;;;2.80;1.13;;;4.50;99.90;;;;;;4912574;29;20032;-71
2023/10/16 01:38:26;;;;;;;5.45;1.58;;;4.50;99.90;;;;;;4931242;29;20075;-71
2023/10/16 01:41:05;;;;;;;2.67;1.38;;;4.20;99.90;;;;;;4911930;29;20040;-71
2023/10/16 01:43:33;;;;;;;2.97;1.08;;;4.00;99.90;;;;;;4923649;29;20024;-71
2023/10/16 01:46:10;;;;;;;3.63;1.20;;;4.00;99.90;;;;;;4918307;29;20167;-71
2023/10/16 01:48:41;;;;;;;2.42;0.85;;;4.00;99.90;;;;;;4916783;29;20016;-71
2023/10/16 01:51:11;;;;;;;6.80;0.90;;;3.90;99.90;;;;;;4926147;29;20668;-71
2023/10/16 01:53:39;;;;;;;1.38;0.70;;;3.90;99.90;;;;;;4923300;29;20028;-71
2023/10/16 01:56:13;;;;;;;2.15;0.93;;;3.80;99.90;;;;;;4931481;29;20111;-71
2023/10/16 01:58:47;;;;;;;1.92;1.00;;;3.80;99.90;;;;;;4925312;29;20107;-71
2023/10/16 02:01:15;;;;;;;2.17;1.20;;;3.90;99.90;;;;;;4925857;29;20032;-71
2023/10/16 02:03:43;;;;;;;7.40;1.20;;;3.90;99.90;;;;;;4922031;29;20107;-71
2023/10/16 02:06:16;;;;;;;1.85;0.95;;;3.70;99.90;;;;;;4921462;29;20793;-71
2023/10/16 02:08:44;;;;;;;3.63;1.25;;;3.60;99.90;;;;;;4924379;29;20019;-71
2023/10/16 02:11:11;;;;;;;1.98;1.25;;;3.60;99.90;;;;;;4916737;29;20118;-71
2023/10/16 02:13:41;;;;;;;1.13;0.70;;;3.60;99.90;;;;;;4930331;29;20035;-71
2023/10/16 02:16:17;;;;;;;1.67;1.40;;;3.60;99.90;;;;;;4903565;29;20099;-71
2023/10/16 02:18:45;;;;;;;1.20;1.05;;;3.70;99.90;;;;;;4928373;29;20110;-71
2023/10/16 02:21:13;;;;;;;5.38;1.88;;;3.70;99.90;;;;;;4927842;29;20036;-71
2023/10/16 02:23:44;;;;;;;4.03;1.23;;;3.70;99.90;;;;;;4922332;29;20055;-71
2023/10/16 02:26:11;;;;;;;4.13;1.27;;;3.70;99.90;;;;;;4911023;29;20119;-71
2023/10/16 02:28:40;;;;;;;6.63;1.80;;;3.70;99.90;;;;;;4930836;29;20048;-71
2023/10/16 02:31:10;;;;;;;1.63;1.08;;;3.80;99.90;;;;;;4914936;29;20047;-71
2023/10/16 02:33:38;;;;;;;2.65;1.45;;;3.70;99.90;;;;;;4930728;29;20365;-71
2023/10/16 02:36:04;;;;;;;2.28;1.33;;;3.70;99.90;;;;;;4924352;29;20532;-71
2023/10/16 02:38:29;;;;;;;2.00;1.20;;;3.70;99.90;;;;;;4924537;29;20118;-71
2023/10/16 02:41:07;;;;;;;1.75;1.10;;;3.60;99.90;;;;;;4924509;29;20126;-71
2023/10/16 02:43:37;;;;;;;8.95;0.95;;;3.30;99.90;;;;;;4931768;29;20021;-71
2023/10/16 02:46:09;;;;;;;1.48;0.90;;;3.40;99.90;;;;;;4916668;29;20028;-71
2023/10/16 02:48:35;;;;;;;2.97;0.90;;;3.60;99.90;;;;;;4919151;29;20046;-71
2023/10/16 02:51:02;;;;;;;2.20;1.25;;;3.60;99.90;;;;;;4922167;29;20038;-72
2023/10/16 02:53:30;;;;;;;3.50;0.95;;;3.70;99.90;;;;;;4938626;29;20047;-72
2023/10/16 02:56:08;;;;;;;1.75;1.15;;;3.70;99.90;;;;;;4893625;29;20130;-71
2023/10/16 02:58:54;;;;;;;3.38;1.15;;;3.70;99.90;;;;;;4922856;29;20039;-71
2023/10/16 03:01:21;;;;;;;4.45;1.33;;;3.80;99.90;;;;;;4926515;29;20171;-72
2023/10/16 03:03:50;;;;;;;1.05;0.95;;;3.80;99.90;;;;;;4927982;29;20079;-72
2023/10/16 03:06:20;;;;;;;2.30;1.10;;;3.80;99.90;;;;;;4922951;29;20028;-71
2023/10/16 03:08:49;;;;;;;1.17;0.85;;;3.40;99.90;;;;;;4920748;29;20060;-71
2023/10/16 03:11:17;;;;;;;1.88;1.00;;;3.10;99.90;;;;;;4901107;29;20031;-71
2023/10/16 03:13:50;;;;;;;1.88;1.13;;;3.00;99.90;;;;;;4925446;29;20024;-71
2023/10/16 03:16:17;;;;;;;3.67;1.52;;;3.10;99.90;;;;;;4926209;29;20094;-72
2023/10/16 03:18:47;;;;;;;1.40;1.13;;;3.10;99.90;;;;;;4920413;29;20079;-72
2023/10/16 03:23:46;;;;;;;1.42;0.80;;;3.10;99.90;;;;;;4929165;29;20024;-72
2023/10/16 03:26:25;;;;;;;;;;;3.20;99.90;;;;;;4922312;29;20395;-72
2023/10/16 03:28:53;;;;;;;1.10;0.90;;;3.20;99.90;;;;;;4929048;29;19911;-71
2023/10/16 03:31:20;;;;;;;1.75;1.45;;;3.30;99.90;;;;;;4916074;29;20039;-71
2023/10/16 03:33:47;;;;;;;1.92;0.90;;;3.30;99.90;;;;;;4925873;29;20032;-71
2023/10/16 03:36:15;;;;;;;1.23;0.88;;;3.40;99.90;;;;;;4927967;29;20075;-71
2023/10/16 03:38:41;;;;;;;3.05;1.30;;;3.40;99.90;;;;;;4945661;29;20062;-71
2023/10/16 03:44:06;;;;;;;2.90;1.20;;;3.00;99.90;;;;;;4922189;29;20079;-70
2023/10/16 03:46:33;;;;;;;5.32;1.05;;;2.80;99.90;;;;;;4923799;29;20031;-71
2023/10/16 03:49:00;;;;;;;1.20;0.93;;;2.80;99.90;;;;;;4926751;29;20084;-70
2023/10/16 03:51:26;;;;;;;3.85;1.40;;;2.80;99.90;;;;;;4916601;29;20028;-70
2023/10/16 03:53:56;;;;;;;4.60;1.35;;;2.70;99.90;;;;;;4921138;29;20118;-70
2023/10/16 03:56:24;;;;;;;1.27;1.02;;;2.70;99.90;;;;;;4926998;29;20595;-71
2023/10/16 03:58:53;;;;;;;2.60;0.77;;;2.70;99.90;;;;;;4917929;29;20342;-71
2023/10/16 04:01:27;;;;;;;3.08;1.80;;;2.70;99.90;;;;;;4923507;29;20122;-71
2023/10/16 04:03:57;;;;;;;1.08;0.90;;;2.70;99.90;;;;;;4926730;29;20064;-71
2023/10/16 04:06:25;;;;;;;0.82;0.77;;;2.70;99.90;;;;;;4915995;29;20524;-71
2023/10/16 04:08:53;;;;;;;2.05;1.10;;;2.80;99.90;;;;;;4926376;29;20107;-72
2023/10/16 04:11:24;;;;;;;1.83;1.45;;;2.80;99.90;;;;;;4926941;29;20046;-73
2023/10/16 04:13:52;;;;;;;2.78;1.02;;;2.90;99.90;;;;;;4926723;29;20036;-72
2023/10/16 04:24:30;;;;;;;1.75;1.05;;;2.80;99.90;;;;;;4917188;29;20061;-71
2023/10/16 04:29:34;;;;;;;1.13;1.02;;;2.50;99.90;;;;;;4929771;29;20028;-71
2023/10/16 04:32:19;;;;;;;3.42;1.00;;;2.40;99.90;;;;;;4943615;29;20032;-72
2023/10/16 04:34:52;;;;;;;28.85;9.02;;;2.50;99.90;;;;;;4920546;29;20029;-72
2023/10/16 04:37:40;;;;;;;1.98;1.10;;;3.00;99.90;;;;;;4939619;29;20469;-72
2023/10/16 04:45:26;;;;;;;7.32;1.25;;;2.90;99.90;;;;;;4919842;29;20032;-72
2023/10/16 04:53:08;;;;;;;2.03;0.82;;;2.70;99.90;;;;;;4929342;29;20044;-72
2023/10/16 05:13:06;;;;;;;;;;;;;;;;;;;;;
2023/10/16 05:14:19;;;;;;;2.67;1.00;;;2.60;99.90;;;;;;4932541;29;20020;-71
2023/10/16 05:22:02;;;;;;;8.90;4.32;;;2.70;99.90;;;;;;4925317;29;20044;-72
2023/10/16 06:14:13;;;;;;;0.75;0.75;;;2.50;99.90;;;;;;4921847;29;20020;-70
2023/10/16 06:16:47;;;;;;;12.90;1.13;;;2.50;99.90;;;;;;4933275;29;20050;-70
2023/10/16 06:19:15;;;;;;;2.92;1.70;;;2.60;99.90;;;;;;4929436;29;20079;-69
2023/10/16 06:21:46;;;;;;;6.97;2.30;;;2.80;99.90;;;;;;4926453;29;20035;-68
2023/10/16 06:27:20;;;;;;;1.15;0.82;;;3.00;99.90;;;;;;4952536;28;20111;-69
2023/10/16 06:29:50;;;;;;;19.23;1.08;;;3.20;99.90;;;;;;4962909;28;20067;-68
2023/10/16 06:32:25;;;;;;;3.03;1.40;;;3.30;99.90;;;;;;4939951;28;20074;-68
2023/10/16 06:34:58;;;;;;;1.00;0.80;;;3.60;99.90;;;;;;4960344;28;20031;-67
2023/10/16 06:37:24;;;;;;;6.45;1.38;;;3.60;99.90;;;;;;4952312;28;20035;-68
2023/10/16 06:39:58;;;;;;;4.93;1.00;;;3.60;99.90;;;;;;4959625;28;20063;-68
2023/10/16 06:42:24;;;;;;;3.25;1.80;;;3.70;99.90;;;;;;4935899;29;20039;-70
2023/10/16 06:44:55;;;;;;;3.50;1.58;;;3.70;99.90;;;;;;4956926;28;20038;-71
2023/10/16 06:47:45;;;;;;;1.23;1.08;;;3.80;99.90;;;;;;4955546;28;20023;-71
2023/10/16 06:52:54;;;;;;;3.35;1.45;;;3.80;99.90;;;;;;4958267;28;20042;-70
2023/10/16 06:55:23;;;;;;;2.72;1.63;;;3.90;99.90;;;;;;4960196;28;20041;-71
2023/10/16 06:57:49;;;;;;;2.25;1.77;;;4.00;99.90;;;;;;4957603;28;20179;-71
2023/10/16 07:00:32;;;;;;;5.18;1.42;;;4.00;99.90;;;;;;4925087;29;20512;-71
2023/10/16 07:03:01;;;;;;;2.83;1.17;;;4.00;99.90;;;;;;4934152;29;20036;-71
2023/10/16 07:05:43;;;;;;;3.28;1.63;;;4.00;99.90;;;;;;4906733;29;20036;-71
2023/10/16 07:08:18;;;;;;;1.58;1.17;;;4.10;99.90;;;;;;4929652;29;20119;-70
2023/10/16 07:10:55;;;;;;;2.58;1.70;;;4.20;99.90;;;;;;4908428;29;20032;-70
2023/10/16 07:13:28;;;;;;;7.88;1.83;;;4.30;99.90;;;;;;4929953;29;20110;-69
2023/10/16 07:16:02;;;;;;;1.85;1.20;;;4.40;99.90;;;;;;4909879;29;20119;-69
2023/10/16 07:18:32;;;;;;;11.35;1.27;;;4.50;99.90;;;;;;4922191;29;20100;-70
2023/10/16 07:23:34;;;;;;;;;;;4.70;99.90;;;;;;4933414;29;20439;-71
2023/10/16 07:26:09;;;;;;;2.13;1.50;;;4.80;99.90;;;;;;4923762;29;19923;-71
2023/10/16 07:28:37;;;;;;;4.22;2.17;;;4.90;99.90;;;;;;4925065;29;20114;-71
2023/10/16 07:31:05;;;;;;;5.65;1.75;;;5.00;99.90;;;;;;4926119;29;20469;-66
2023/10/16 07:33:32;;;;;;;9.20;1.60;;;5.10;99.90;;;;;;4934118;29;20523;-66
2023/10/16 07:35:59;;;;;;;2.90;1.45;;;5.20;99.90;;;;;;4943820;29;20412;-66
2023/10/16 07:38:26;;;;;;;2.40;1.25;;;5.20;99.90;;;;;;4909311;29;20040;-67
2023/10/16 07:40:54;;;;;;;4.45;1.85;;;5.40;99.90;;;;;;4915351;29;20030;-67
2023/10/16 07:43:29;;;;;;;15.50;2.20;;;5.50;99.90;;;;;;4925969;29;20027;-67
2023/10/16 07:48:45;;;;;;;5.28;1.83;;;5.70;99.90;;;;;;4918789;29;20035;-68
2023/10/16 07:51:16;;;;;;;4.50;1.25;;;5.80;99.90;;;;;;4934041;29;20027;-67
2023/10/16 07:53:42;;;;;;;4.68;1.60;;;5.80;99.90;;;;;;4920681;29;20481;-67
2023/10/16 07:56:25;;;;;;;3.95;1.95;;;6.00;99.90;;;;;;4932844;29;20079;-67
2023/10/16 07:59:18;;;;;;;7.75;2.10;;;6.10;99.90;;;;;;4923569;29;20505;-67
2023/10/16 08:04:27;;;;;;;5.97;2.05;;;6.30;99.90;;;;;;4927252;29;20451;-67
2023/10/16 08:07:04;;;;;;;2.97;1.75;;;6.30;99.90;;;;;;4932651;29;20365;-67
2023/10/16 08:14:46;;;;;;;2.78;1.63;;;6.40;99.90;;;;;;4919301;29;20038;-66
2023/10/16 08:17:15;;;;;;;3.72;1.92;;;6.50;99.90;;;;;;4917033;29;20123;-66
2023/10/16 08:19:41;;;;;;;2.50;1.60;;;6.60;99.90;;;;;;4920102;29;20039;-66
2023/10/16 08:22:07;;;;;;;3.70;2.15;;;6.70;99.90;;;;;;4913555;29;20032;-66
2023/10/16 08:24:34;;;;;;;3.55;2.03;;;6.80;99.90;;;;;;4925408;29;20032;-67
2023/10/16 08:29:54;;;;;;;5.95;2.63;;;6.90;99.90;;;;;;4924994;29;20046;-66
2023/10/16 08:35:09;;;;;;;4.38;2.50;;;6.90;99.90;;;;;;4929256;29;20036;-67
2023/10/16 08:37:40;;;;;;;3.67;2.17;;;7.10;99.90;;;;;;4930586;29;20090;-67
2023/10/16 08:40:19;;;;;;;13.80;2.60;;;7.30;99.90;;;;;;4926724;29;20036;-67
2023/10/16 08:43:00;;;;;;;7.97;2.50;;;7.30;99.90;;;;;;4916144;29;20051;-67
2023/10/16 08:45:29;;;;;;;4.27;2.20;;;7.40;99.90;;;;;;4930142;29;20536;-67
2023/10/16 08:47:58;;;;;;;8.18;2.25;;;7.40;99.90;;;;;;4929469;29;20044;-67
2023/10/16 08:50:40;;;;;;;2.97;1.75;;;7.50;99.90;;;;;;4946398;29;20472;-67
2023/10/16 08:55:56;;;;;;;8.02;2.58;;;7.70;99.90;;;;;;4922384;29;20083;-69
2023/10/16 08:58:22;;;;;;;9.40;2.50;;;7.80;99.90;;;;;;4926929;29;20075;-68
2023/10/16 09:00:51;;;;;;;6.20;3.05;;;7.80;99.90;;;;;;4932886;29;20032;-68
2023/10/16 09:03:19;;;;;;;4.05;1.70;;;8.00;99.90;;;;;;4901861;29;20028;-68
2023/10/16 09:05:45;;;;;;;10.48;2.80;;;8.10;99.90;;;;;;4918696;29;20040;-69
2023/10/16 09:08:17;;;;;;;7.57;2.85;;;8.20;99.90;;;;;;4914662;29;20059;-68
2023/10/16 09:10:44;;;;;;;5.38;2.17;;;8.40;99.90;;;;;;4910084;29;20034;-69
2023/10/16 09:13:13;;;;;;;3.35;2.13;;;8.60;99.90;;;;;;4923080;29;20047;-68
2023/10/16 09:15:45;;;;;;;10.90;2.13;;;8.70;99.90;;;;;;4914071;29;20039;-69
2023/10/16 09:18:27;;;;;;;4.07;2.53;;;8.80;99.90;;;;;;4920055;29;20062;-69
2023/10/16 09:21:00;;;;;;;2.35;1.42;;;8.90;99.90;;;;;;4920420;29;20115;-69
2023/10/16 09:23:36;;;;;;;5.05;2.63;;;9.00;99.90;;;;;;4922538;29;20043;-68
2023/10/16 09:26:06;;;;;;;5.22;1.95;;;9.20;99.90;;;;;;4926813;29;20056;-68
2023/10/16 09:28:33;;;;;;;4.22;1.60;;;9.30;99.90;;;;;;4924128;29;20039;-68
2023/10/16 09:31:02;;;;;;;4.85;1.85;;;9.40;99.90;;;;;;4922992;29;20024;-68
2023/10/16 09:33:32;;;;;;;2.75;1.40;;;9.60;99.90;;;;;;4910466;29;20095;-69
2023/10/16 09:36:01;;;;;;;12.13;1.88;;;9.50;99.90;;;;;;4916056;29;20114;-75
2023/10/16 09:38:33;;;;;;;12.38;2.05;;;9.80;99.90;;;;;;4900293;29;20070;-76
2023/10/16 09:43:56;;;;;;;13.45;2.22;;;10.00;99.90;;;;;;4914263;29;20597;-75
2023/10/16 09:49:09;;;;;;;13.60;1.73;;;10.30;99.90;;;;;;4916195;29;20063;-74
2023/10/16 09:51:35;;;;;;;3.90;1.50;;;10.70;99.90;;;;;;4916518;29;20043;-70
2023/10/16 09:54:08;;;;;;;2.92;1.42;;;10.60;99.90;;;;;;4915863;29;20058;-71
2023/10/16 09:56:38;;;;;;;3.25;1.60;;;10.60;99.90;;;;;;4916935;29;20039;-71
2023/10/16 09:59:38;;;;;;;3.17;1.20;;;10.90;99.90;;;;;;4909864;29;20702;-70
2023/10/16 10:02:06;;;;;;;2.92;1.20;;;11.60;99.90;;;;;;4919743;29;20103;-72
2023/10/16 10:04:35;;;;;;;2.78;1.55;;;11.90;99.90;;;;;;4915364;29;20469;-71
2023/10/16 10:07:13;;;;;;;3.45;1.20;;;12.20;99.90;;;;;;4917715;29;20024;-70
2023/10/16 10:09:47;;;;;;;3.47;1.10;;;12.10;99.90;;;;;;4915980;29;20024;-72
2023/10/16 10:12:42;;;;;;;7.90;1.13;;;12.20;99.90;;;;;;4915271;29;20459;-71
2023/10/16 10:15:19;;;;;;;3.05;1.35;;;12.40;99.90;;;;;;4915047;29;20080;-72
2023/10/16 10:17:48;;;;;;;5.25;0.90;;;12.90;99.90;;;;;;4915781;29;20060;-71
2023/10/16 10:20:25;;;;;;;4.03;1.98;;;13.10;99.90;;;;;;4930510;29;20107;-70
2023/10/16 10:22:57;;;;;;;2.17;1.00;;;13.50;99.90;;;;;;4918240;29;20922;-74
2023/10/16 10:25:38;;;;;;;2.25;1.10;;;13.20;99.90;;;;;;4930379;29;20100;-73
2023/10/16 10:28:18;;;;;;;2.90;1.17;;;12.40;99.90;;;;;;4914185;29;20020;-72
2023/10/16 10:30:45;;;;;;;1.60;0.55;;;12.50;99.90;;;;;;4924219;29;20036;-80
2023/10/16 10:33:13;;;;;;;1.52;0.63;;;13.00;99.90;;;;;;4909872;29;20486;-74
2023/10/16 10:35:39;;;;;;;2.55;0.75;;;12.60;99.90;;;;;;4915061;29;20032;-75
2023/10/16 10:38:29;;;;;;;3.03;2.00;;;13.90;98.70;;;;;;4914800;29;20034;-74
2023/10/16 10:41:08;;;;;;;3.67;1.10;;;13.10;98.50;;;;;;4921826;29;20446;-74
2023/10/16 10:43:46;;;;;;;8.10;0.63;;;13.80;98.50;;;;;;4915585;29;20054;-73
2023/10/16 10:46:22;;;;;;;1.17;0.70;;;14.80;96.10;;;;;;4922623;29;20154;-73
2023/10/16 10:48:48;;;;;;;0.82;0.52;;;15.00;94.80;;;;;;4915974;29;20060;-73
2023/10/16 10:51:16;;;;;;;3.92;0.85;;;16.40;92.40;;;;;;4917098;29;20081;-74
2023/10/16 10:53:57;;;;;;;3.63;1.17;;;15.60;89.60;;;;;;4917656;29;20123;-74
2023/10/16 10:56:39;;;;;;;1.73;0.87;;;17.20;89.20;;;;;;4927876;29;20031;-73
2023/10/16 10:59:09;;;;;;;2.55;0.60;;;19.80;76.30;;;;;;4906629;28;20284;-73
2023/10/16 11:02:03;;;;;;;0.68;0.47;;;19.80;72.40;;;;;;4935224;29;20039;-73
2023/10/16 11:04:34;;;;;;;1.88;0.70;;;21.50;66.60;;;;;;4925021;29;20075;-75
2023/10/16 11:07:11;;;;;;;1.58;0.70;;;21.20;60.00;;;;;;4925268;29;20455;-75
2023/10/16 11:09:42;;;;;;;1.02;0.60;;;17.50;68.70;;;;;;4918737;29;20047;-74
2023/10/16 11:12:08;;;;;;;;;;;19.20;69.40;;;;;;4931224;29;20372;-74
2023/10/16 11:14:41;;;;;;;0.98;0.50;;;18.80;68.20;;;;;;4918416;29;20639;-75
2023/10/16 11:17:06;;;;;;;1.83;0.70;;;17.20;73.50;;;;;;4934712;29;20036;-74
2023/10/16 11:19:49;;;;;;;1.45;0.68;;;18.80;66.20;;;;;;4925390;29;20032;-74
2023/10/16 11:22:20;;;;;;;1.50;1.00;;;19.90;61.00;;;;;;4918606;29;20512;-74
2023/10/16 11:24:47;;;;;;;3.47;0.82;;;21.40;61.40;;;;;;4918358;29;20563;-74
2023/10/16 11:27:14;;;;;;;1.02;0.45;;;20.00;59.10;;;;;;4925109;29;20035;-74
2023/10/16 11:29:45;;;;;;;2.30;0.43;;;18.00;66.30;;;;;;4922142;29;20031;-74
2023/10/16 11:32:17;;;;;;;1.13;0.70;;;18.50;64.20;;;;;;4917295;29;20047;-74
2023/10/16 11:34:59;;;;;;;1.95;0.65;;;20.90;62.80;;;;;;4910534;29;20032;-75
2023/10/16 11:37:25;;;;;;;2.38;0.60;;;20.80;60.60;;;;;;4917099;29;20031;-74
2023/10/16 11:39:54;;;;;;;1.27;0.80;;;21.40;58.40;;;;;;4942409;29;20039;-73
2023/10/16 11:42:20;;;;;;;1.95;0.90;;;20.30;57.80;;;;;;4927960;29;20135;-73
2023/10/16 11:44:51;;;;;;;4.05;0.85;;;18.40;65.00;;;;;;4918067;29;20030;-74
2023/10/16 11:47:18;;;;;;;6.25;1.65;;;20.60;60.50;;;;;;4933147;29;20033;-73
2023/10/16 11:49:53;;;;;;;1.55;0.47;;;18.80;61.40;;;;;;4921434;29;20031;-73
2023/10/16 11:52:27;;;;;;;2.88;0.60;;;20.20;61.30;;;;;;4932633;29;20027;-74
2023/10/16 11:54:57;;;;;;;4.45;0.93;;;19.60;62.10;;;;;;4919114;29;20134;-73
2023/10/16 11:57:25;;;;;;;1.58;0.80;;;20.10;61.50;;;;;;4931446;29;20042;-74
2023/10/16 11:59:51;;;;;;;1.08;0.70;;;22.00;56.80;;;;;;4909602;29;20492;-74
2023/10/16 12:02:18;;;;;;;3.85;0.70;;;19.00;59.30;;;;;;4912279;29;20889;-75
2023/10/16 12:04:45;;;;;;;3.13;0.40;;;18.90;63.60;;;;;;4923841;28;20036;-74
2023/10/16 12:07:13;;;;;;;1.52;0.93;;;19.20;61.70;;;;;;4928794;29;20063;-74
2023/10/16 12:09:42;;;;;;;2.92;0.75;;;18.80;63.00;;;;;;4915936;29;20083;-74
2023/10/16 12:12:19;;;;;;;1.33;0.43;;;17.90;66.90;;;;;;4914919;29;20024;-75
2023/10/16 12:14:49;;;;;;;1.10;0.50;;;17.80;65.80;;;;;;4924494;29;20476;-74
2023/10/16 12:17:20;;;;;;;3.80;1.38;;;20.30;62.80;;;;;;4948189;29;20043;-74
2023/10/16 12:19:47;;;;;;;14.52;5.75;;;22.30;58.10;;;;;;4913136;29;20032;-75
2023/10/16 12:22:15;;;;;;;4.13;1.00;;;22.90;55.30;;;;;;4915894;29;20064;-75
2023/10/16 12:24:44;;;;;;;2.42;0.52;;;23.90;55.00;;;;;;4913569;29;20032;-74
2023/10/16 12:27:11;;;;;;;2.67;0.57;;;23.30;54.40;;;;;;4921873;29;20051;-74
2023/10/16 12:29:37;;;;;;;3.53;1.33;;;22.20;55.90;;;;;;4917707;29;20028;-70
2023/10/16 12:32:03;;;;;;;1.58;0.70;;;24.40;51.70;;;;;;4921316;29;20027;-71
2023/10/16 12:34:32;;;;;;;2.75;0.68;;;19.80;56.70;;;;;;4918508;29;20422;-70
2023/10/16 12:37:06;;;;;;;1.80;0.60;;;20.40;58.10;;;;;;4933910;29;20051;-71
2023/10/16 12:39:35;;;;;;;1.95;0.68;;;20.30;57.30;;;;;;4941373;29;20046;-71
2023/10/16 12:42:06;;;;;;;1.15;0.68;;;21.30;57.00;;;;;;4931005;29;20036;-71
2023/10/16 12:44:33;;;;;;;3.63;1.02;;;22.10;55.60;;;;;;4919507;29;20035;-72
2023/10/16 12:46:59;;;;;;;2.15;0.77;;;19.80;59.10;;;;;;4932633;29;20035;-71
2023/10/16 12:49:25;;;;;;;1.20;0.68;;;20.40;59.40;;;;;;4927172;29;20035;-72
2023/10/16 12:51:51;;;;;;;1.60;0.70;;;21.10;56.10;;;;;;4933528;29;20745;-72
2023/10/16 12:54:19;;;;;;;1.52;0.55;;;20.50;57.80;;;;;;4920229;29;20046;-72
2023/10/16 12:56:48;;;;;;;5.18;1.38;;;19.20;56.80;;;;;;4934638;29;20046;-73
2023/10/16 12:59:13;;;;;;;2.30;0.60;;;20.00;58.00;;;;;;4924217;29;20023;-72
2023/10/16 13:01:40;;;;;;;1.13;0.68;;;20.50;56.40;;;;;;4930954;29;20143;-72
2023/10/16 13:04:13;;;;;;;4.07;0.65;;;20.50;57.60;;;;;;4923662;29;20051;-72
2023/10/16 13:06:39;;;;;;;0.50;0.30;;;19.40;59.90;;;;;;4926761;29;20385;-72
2023/10/16 13:09:05;;;;;;;2.17;0.70;;;20.00;59.50;;;;;;4921567;29;20491;-72
2023/10/16 13:11:32;;;;;;;1.65;0.80;;;19.70;56.80;;;;;;4919728;29;20388;-72
2023/10/16 13:13:57;;;;;;;3.45;1.33;;;20.10;59.80;;;;;;4918611;29;20112;-72
2023/10/16 13:16:24;;;;;;;3.33;0.75;;;21.80;55.40;;;;;;4926667;29;20122;-72
2023/10/16 13:18:57;;;;;;;2.15;1.30;;;20.90;53.80;;;;;;4919419;29;20460;-72
2023/10/16 13:21:33;;;;;;;0.90;0.30;;;22.80;53.50;;;;;;4934106;29;20044;-71
2023/10/16 13:24:16;;;;;;;2.05;0.65;;;22.80;53.30;;;;;;4923796;29;20038;-70
2023/10/16 13:26:42;;;;;;;2.60;0.75;;;21.60;53.20;;;;;;4920225;29;20095;-72
2023/10/16 13:29:11;;;;;;;1.83;0.80;;;20.00;56.50;;;;;;4924784;29;20028;-70
2023/10/16 13:31:42;;;;;;;2.40;0.45;;;21.70;54.80;;;;;;4935232;29;20396;-70
2023/10/16 13:34:13;;;;;;;2.97;0.25;;;22.30;53.00;;;;;;4914811;29;20028;-70
2023/10/16 13:37:08;;;;;;;2.22;0.65;;;22.70;52.30;;;;;;4936155;29;20032;-69
2023/10/16 13:39:41;;;;;;;2.92;0.60;;;22.80;52.20;;;;;;4928046;29;20059;-69
2023/10/16 13:42:14;;;;;;;0.82;0.35;;;20.60;54.40;;;;;;4919014;29;20036;-70
2023/10/16 13:44:40;;;;;;;2.80;0.85;;;19.70;56.70;;;;;;4911699;29;20408;-69
2023/10/16 13:47:08;;;;;;;5.85;0.70;;;21.70;56.10;;;;;;4925228;29;20032;-69
2023/10/16 13:49:38;;;;;;;1.13;0.70;;;20.80;53.40;;;;;;4920914;29;20036;-69
2023/10/16 13:52:07;;;;;;;0.25;0.20;;;21.40;54.00;;;;;;4928159;29;20564;-69
2023/10/16 13:54:40;;;;;;;1.33;0.50;;;20.10;55.90;;;;;;4915638;29;20043;-69
2023/10/16 13:57:07;;;;;;;5.53;2.05;;;20.50;56.70;;;;;;4930940;29;20036;-70
2023/10/16 13:59:36;;;;;;;4.97;1.40;;;19.40;56.50;;;;;;4919018;29;20032;-68
2023/10/16 14:02:02;;;;;;;3.13;0.60;;;18.40;60.90;;;;;;4928664;29;20058;-70
2023/10/16 14:04:34;;;;;;;4.28;1.27;;;18.60;60.00;;;;;;4918895;29;20047;-69
2023/10/16 14:07:00;;;;;;;0.75;0.30;;;19.20;58.40;;;;;;4924758;29;20028;-70
2023/10/16 14:09:32;;;;;;;1.05;0.50;;;18.70;58.30;;;;;;4928351;29;20393;-70
2023/10/16 14:12:00;;;;;;;3.13;0.55;;;19.90;57.50;;;;;;4922392;29;20032;-70
2023/10/16 14:14:28;;;;;;;1.02;0.40;;;20.30;55.30;;;;;;4925319;29;20059;-70
2023/10/16 14:17:04;;;;;;;4.57;0.73;;;20.40;55.60;;;;;;4930542;29;20039;-70
2023/10/16 14:19:32;;;;;;;3.97;0.30;;;21.10;53.20;;;;;;4900973;29;20028;-71
2023/10/16 14:21:57;;;;;;;2.50;0.57;;;22.30;54.30;;;;;;4918568;29;20028;-71
2023/10/16 14:24:25;;;;;;;2.67;0.60;;;21.40;52.00;;;;;;4917126;29;20437;-71
2023/10/16 14:26:55;;;;;;;1.42;0.60;;;22.60;51.90;;;;;;4929725;29;20040;-72
2023/10/16 14:29:22;;;;;;;1.52;0.60;;;23.70;49.70;;;;;;4922676;29;20027;-72
2023/10/16 14:31:55;;;;;;;4.20;0.47;;;21.70;50.70;;;;;;4930950;29;20048;-72
2023/10/16 14:34:25;;;;;;;1.38;0.80;;;22.30;51.30;;;;;;4909431;29;20051;-72
2023/10/16 14:36:53;;;;;;;1.90;0.90;;;21.60;54.20;;;;;;4916756;29;20489;-71
2023/10/16 14:39:27;;;;;;;1.80;0.35;;;20.40;55.40;;;;;;4909717;29;20095;-69
2023/10/16 14:41:55;;;;;;;1.65;0.63;;;20.40;55.90;;;;;;4932192;29;20027;-70
2023/10/16 14:44:22;;;;;;;1.95;0.65;;;21.30;55.40;;;;;;4926143;29;20054;-70
2023/10/16 14:46:48;;;;;;;2.95;0.40;;;21.40;53.10;;;;;;4934506;29;20023;-70
2023/10/16 14:49:15;;;;;;;1.77;0.70;;;20.90;52.90;;;;;;4916721;29;20099;-71
2023/10/16 14:51:40;;;;;;;3.10;0.38;;;19.90;55.10;;;;;;4917008;29;20046;-70
2023/10/16 14:54:12;;;;;;;14.40;3.38;;;19.80;55.50;;;;;;4919227;29;20040;-70
2023/10/16 14:56:39;;;;;;;1.70;0.88;;;19.10;55.60;;;;;;4925058;29;20114;-69
2023/10/16 14:59:11;;;;;;;3.20;0.73;;;18.10;59.20;;;;;;4918202;29;20104;-70
2023/10/16 15:01:37;;;;;;;2.08;0.50;;;18.40;58.20;;;;;;4949728;28;20043;-70
2023/10/16 15:04:04;;;;;;;1.77;0.30;;;18.10;58.60;;;;;;4916001;29;20051;-70
2023/10/16 15:06:30;;;;;;;1.23;0.50;;;17.50;59.40;;;;;;4917166;29;20038;-70
2023/10/16 15:08:59;;;;;;;1.02;0.40;;;17.40;59.80;;;;;;4922170;29;20051;-70
2023/10/16 15:11:27;;;;;;;3.33;0.50;;;17.00;60.80;;;;;;4917895;29;20032;-70
2023/10/16 15:13:53;;;;;;;0.90;0.45;;;16.80;61.50;;;;;;4915090;29;20069;-71
2023/10/16 15:16:21;;;;;;;1.02;0.35;;;16.50;63.00;;;;;;4932157;29;20111;-70
2023/10/16 15:18:47;;;;;;;0.65;0.40;;;16.10;64.00;;;;;;4940883;29;20075;-70
2023/10/16 15:21:12;;;;;;;3.67;1.58;;;16.10;64.60;;;;;;4926150;29;20028;-70
2023/10/16 15:23:38;;;;;;;4.85;1.60;;;15.70;66.90;;;;;;4925284;29;20031;-70
2023/10/16 15:26:05;;;;;;;3.13;0.93;;;15.30;70.60;;;;;;4934591;29;20027;-70
2023/10/16 15:28:31;;;;;;;1.40;0.52;;;15.50;68.00;;;;;;4910927;29;20024;-70